9JCND FVKB-FLKK
Flight info
| Callsign | 9JCND |
|---|---|
| Flight time | 0h 23m |
| Altitude | 16000 |
| Route | UMVUL UMVUL1A |
| Aircraft | C550/L-SDFGHRWY/S |
Departure
| Time | 2026-05-04 17:14 |
|---|---|
| Airport | Kariba Airport (FVKB) |
Arrival
| Time | 2026-05-04 17:37 |
|---|---|
| Airport | Kenneth Kaunda International Airport (FLKK) |
| Time | Latitude | Longitude | Altitude | Speed | Heading |
|---|---|---|---|---|---|
| 2026-05-04 16:58 | -16.51828 | 28.88697 | 1706 ft | 0 kts | 46° |
| 2026-05-04 17:10 | -16.51834 | 28.88708 | 1706 ft | 0 kts | 190° |
| 2026-05-04 17:11 | -16.51859 | 28.88694 | 1705 ft | 1 kts | 203° |
| 2026-05-04 17:11 | -16.51910 | 28.88692 | 1705 ft | 0 kts | 174° |
| 2026-05-04 17:12 | -16.51911 | 28.88692 | 1705 ft | 1 kts | 174° |
| 2026-05-04 17:12 | -16.51969 | 28.88636 | 1703 ft | 14 kts | 263° |
| 2026-05-04 17:13 | -16.52049 | 28.87984 | 1680 ft | 43 kts | 263° |
| 2026-05-04 17:14 | -16.52077 | 28.87761 | 1676 ft | 3 kts | 76° |
| 2026-05-04 17:14 | -16.52055 | 28.87939 | 1679 ft | 68 kts | 83° |
| 2026-05-04 17:14 | -16.51950 | 28.89691 | 2754 ft | 141 kts | 99° |
| 2026-05-04 17:15 | -16.52381 | 28.90574 | 3715 ft | 150 kts | 136° |
| 2026-05-04 17:15 | -16.54530 | 28.91061 | 5582 ft | 179 kts | 188° |
| 2026-05-04 17:16 | -16.56644 | 28.89863 | 7333 ft | 179 kts | 228° |
| 2026-05-04 17:16 | -16.57503 | 28.86055 | 9100 ft | 194 kts | 288° |
| 2026-05-04 17:17 | -16.56964 | 28.84782 | 9718 ft | 193 kts | 308° |
| 2026-05-04 17:17 | -16.53664 | 28.82840 | 11462 ft | 188 kts | 0° |
| 2026-05-04 17:18 | -16.52358 | 28.82697 | 12030 ft | 191 kts | 1° |
| 2026-05-04 17:18 | -16.49683 | 28.82433 | 13131 ft | 198 kts | 1° |
| 2026-05-04 17:19 | -16.46915 | 28.82169 | 14190 ft | 205 kts | 1° |
| 2026-05-04 17:19 | -16.44043 | 28.81899 | 15213 ft | 211 kts | 0° |
| 2026-05-04 17:20 | -16.41162 | 28.81028 | 15973 ft | 237 kts | 332° |
| 2026-05-04 17:20 | -16.38232 | 28.78797 | 16007 ft | 285 kts | 326° |
| 2026-05-04 17:20 | -16.36567 | 28.77547 | 16006 ft | 304 kts | 326° |
| 2026-05-04 17:21 | -16.32931 | 28.74854 | 16004 ft | 333 kts | 326° |
| 2026-05-04 17:21 | -16.29056 | 28.71989 | 16003 ft | 353 kts | 326° |
| 2026-05-04 17:22 | -16.27031 | 28.70491 | 16003 ft | 359 kts | 326° |
| 2026-05-04 17:22 | -16.24976 | 28.68973 | 16003 ft | 365 kts | 326° |
| 2026-05-04 17:23 | -16.18705 | 28.64342 | 16003 ft | 375 kts | 326° |
| 2026-05-04 17:23 | -16.16561 | 28.62760 | 16003 ft | 377 kts | 326° |
| 2026-05-04 17:23 | -16.12295 | 28.59612 | 16003 ft | 380 kts | 326° |
| 2026-05-04 17:24 | -16.10136 | 28.58021 | 16003 ft | 381 kts | 326° |
| 2026-05-04 17:24 | -16.03664 | 28.53252 | 16003 ft | 382 kts | 326° |
| 2026-05-04 17:25 | -16.01478 | 28.51641 | 16004 ft | 383 kts | 326° |
| 2026-05-04 17:25 | -15.97209 | 28.48498 | 16004 ft | 383 kts | 326° |
| 2026-05-04 17:26 | -15.92869 | 28.45304 | 16004 ft | 384 kts | 326° |
| 2026-05-04 17:26 | -15.86338 | 28.40502 | 16001 ft | 384 kts | 326° |
| 2026-05-04 17:27 | -15.81969 | 28.37290 | 16002 ft | 384 kts | 326° |
| 2026-05-04 17:27 | -15.77614 | 28.34090 | 15998 ft | 384 kts | 326° |
| 2026-05-04 17:28 | -15.73269 | 28.30901 | 15997 ft | 383 kts | 326° |
| 2026-05-04 17:29 | -15.66767 | 28.26131 | 15997 ft | 383 kts | 326° |
| 2026-05-04 17:29 | -15.60248 | 28.21352 | 15998 ft | 383 kts | 326° |
| 2026-05-04 17:30 | -15.53144 | 28.17926 | 15997 ft | 359 kts | 352° |
| 2026-05-04 17:31 | -15.48776 | 28.17865 | 15573 ft | 292 kts | 15° |
| 2026-05-04 17:31 | -15.43810 | 28.20634 | 13325 ft | 265 kts | 48° |
| 2026-05-04 17:32 | -15.40671 | 28.22530 | 11815 ft | 266 kts | 21° |
| 2026-05-04 17:33 | -15.35352 | 28.23504 | 9563 ft | 254 kts | 17° |
| 2026-05-04 17:33 | -15.33663 | 28.23962 | 8807 ft | 249 kts | 22° |
| 2026-05-04 17:34 | -15.31621 | 28.28312 | 6561 ft | 243 kts | 92° |
| 2026-05-04 17:34 | -15.31759 | 28.30007 | 5825 ft | 243 kts | 93° |
| 2026-05-04 17:35 | -15.32229 | 28.34923 | 4743 ft | 199 kts | 97° |
| 2026-05-04 17:35 | -15.32451 | 28.37394 | 4736 ft | 159 kts | 92° |
| 2026-05-04 17:35 | -15.32539 | 28.38522 | 4735 ft | 141 kts | 92° |
| 2026-05-04 17:36 | -15.32598 | 28.39497 | 4619 ft | 135 kts | 90° |
| 2026-05-04 17:36 | -15.32676 | 28.40443 | 4514 ft | 129 kts | 91° |
| 2026-05-04 17:36 | -15.32761 | 28.41315 | 4285 ft | 114 kts | 93° |
| 2026-05-04 17:36 | -15.32803 | 28.42097 | 4072 ft | 105 kts | 93° |
| 2026-05-04 17:37 | -15.32869 | 28.42831 | 3902 ft | 100 kts | 93° |
| 2026-05-04 17:37 | -15.32934 | 28.43569 | 3796 ft | 104 kts | 93° |
| 2026-05-04 17:37 | -15.32996 | 28.44288 | 3781 ft | 88 kts | 95° |
| 2026-05-04 17:37 | -15.33035 | 28.44734 | 3773 ft | 43 kts | 95° |
| 2026-05-04 17:38 | -15.33061 | 28.45022 | 3767 ft | 34 kts | 96° |
| 2026-05-04 17:38 | -15.33071 | 28.45146 | 3765 ft | 10 kts | 85° |
| 2026-05-04 17:38 | -15.33030 | 28.45199 | 3764 ft | 9 kts | 17° |
| 2026-05-04 17:38 | -15.32986 | 28.45200 | 3764 ft | 8 kts | 352° |